createdAt,value
2023-03-17T00:01:23.259Z,90.45
2023-03-17T00:03:51.538Z,89.58
2023-03-17T00:06:24.678Z,89.35
2023-03-17T00:08:53.014Z,89.34
2023-03-17T00:11:21.492Z,89.57
2023-03-17T00:13:49.816Z,89.18
2023-03-17T00:16:19.993Z,89.75
2023-03-17T00:18:49.444Z,90.14
2023-03-17T00:21:19.624Z,89.93
2023-03-17T00:23:51.632Z,90.20
2023-03-17T00:26:19.553Z,90.38
2023-03-17T00:28:47.155Z,90.75
2023-03-17T00:31:17.711Z,90.29
2023-03-17T00:33:46.464Z,90.26
2023-03-17T00:36:17.955Z,90.71
2023-03-17T00:38:46.186Z,90.49
2023-03-17T00:41:14.056Z,90.75
2023-03-17T00:43:41.983Z,90.61
2023-03-17T00:46:14.629Z,90.57
2023-03-17T00:48:43.452Z,90.57
2023-03-17T00:51:11.351Z,90.41
2023-03-17T00:53:40.512Z,90.36
2023-03-17T00:56:13.309Z,90.83
2023-03-17T00:58:41.034Z,90.54
2023-03-17T01:01:09.538Z,91.08
2023-03-17T01:03:38.747Z,91.28
2023-03-17T01:06:08.079Z,91.60
2023-03-17T01:08:36.730Z,92.28
2023-03-17T01:11:06.646Z,92.61
2023-03-17T01:13:35.120Z,92.59
2023-03-17T01:16:02.832Z,92.61
2023-03-17T01:18:30.922Z,92.76
2023-03-17T01:20:58.634Z,93.17
2023-03-17T01:23:26.274Z,93.39
2023-03-17T01:25:54.322Z,93.28
2023-03-17T01:28:23.351Z,93.19
2023-03-17T01:30:51.239Z,93.57
2023-03-17T01:33:19.040Z,93.68
2023-03-17T01:35:46.781Z,93.01
2023-03-17T01:38:14.900Z,92.96
2023-03-17T01:40:44.891Z,93.14
2023-03-17T01:43:21.514Z,92.97
2023-03-17T01:46:16.064Z,92.67
2023-03-17T01:48:46.507Z,92.58
2023-03-17T01:51:18.738Z,92.53
2023-03-17T01:53:47.426Z,91.98
2023-03-17T01:56:16.663Z,92.14
2023-03-17T01:58:45.548Z,91.85
2023-03-17T02:01:14.687Z,91.59
2023-03-17T02:03:42.835Z,91.40
2023-03-17T02:06:11.500Z,91.46
2023-03-17T02:08:39.348Z,91.59
2023-03-17T02:11:07.093Z,90.41
2023-03-17T02:13:35.057Z,90.81
2023-03-17T02:16:03.785Z,90.34
2023-03-17T02:18:34.015Z,90.41
2023-03-17T02:21:37.379Z,90.67
2023-03-17T02:24:10.687Z,91.25
2023-03-17T02:26:38.695Z,91.02
2023-03-17T02:29:06.718Z,90.93
2023-03-17T02:31:34.814Z,91.44
2023-03-17T02:34:02.877Z,91.94
2023-03-17T02:36:30.594Z,92.52
2023-03-17T02:38:58.520Z,92.57
2023-03-17T02:41:27.485Z,92.68
2023-03-17T02:43:55.077Z,92.93
2023-03-17T02:46:22.689Z,92.83
2023-03-17T02:48:50.419Z,92.53
2023-03-17T02:51:18.039Z,92.28
2023-03-17T02:53:45.617Z,92.04
2023-03-17T02:56:13.259Z,92.05
2023-03-17T02:58:42.186Z,92.37
2023-03-17T03:01:10.630Z,92.39
2023-03-17T03:03:38.493Z,92.28
2023-03-17T03:06:10.507Z,92.25
2023-03-17T03:08:38.009Z,92.16
2023-03-17T03:11:06.150Z,92.21
2023-03-17T03:13:33.796Z,92.27
2023-03-17T03:16:02.700Z,92.58
2023-03-17T03:18:30.545Z,92.42
2023-03-17T03:20:58.132Z,92.43
2023-03-17T03:23:25.745Z,92.67
2023-03-17T03:25:53.334Z,93.09
2023-03-17T03:28:20.951Z,92.98
2023-03-17T03:30:48.562Z,93.03
2023-03-17T03:33:17.859Z,92.68
2023-03-17T03:35:45.738Z,92.66
2023-03-17T03:38:13.781Z,92.89
2023-03-17T03:40:41.386Z,93.35
2023-03-17T03:43:21.761Z,92.74
2023-03-17T03:45:50.421Z,92.95
2023-03-17T03:48:19.673Z,93.02
2023-03-17T03:50:47.401Z,92.82
2023-03-17T03:53:15.184Z,93.68
2023-03-17T03:55:43.014Z,93.78
2023-03-17T03:58:11.363Z,94.20
2023-03-17T04:00:38.933Z,94.35
2023-03-17T04:03:06.732Z,94.51
2023-03-17T04:05:35.840Z,94.05
2023-03-17T04:08:03.460Z,94.60
2023-03-17T04:10:31.783Z,94.95
2023-03-17T04:12:59.676Z,94.83
2023-03-17T04:15:27.379Z,95.06
2023-03-17T04:17:55.625Z,94.66
2023-03-17T04:20:23.315Z,94.71
2023-03-17T04:22:52.422Z,94.26
2023-03-17T04:25:20.220Z,94.19
2023-03-17T04:27:47.987Z,94.04
2023-03-17T04:30:16.828Z,93.93
2023-03-17T04:32:45.063Z,93.92
2023-03-17T04:35:14.678Z,93.91
2023-03-17T04:37:42.318Z,94.51
2023-03-17T04:40:13.024Z,93.94
2023-03-17T04:42:40.680Z,93.95
2023-03-17T04:45:11.156Z,93.68
2023-03-17T04:47:39.394Z,93.97
2023-03-17T04:50:08.882Z,93.85
2023-03-17T04:52:37.429Z,94.12
2023-03-17T04:55:05.579Z,94.03
2023-03-17T04:57:34.559Z,94.19
2023-03-17T05:00:02.177Z,93.72
2023-03-17T05:02:30.075Z,93.53
2023-03-17T05:04:57.629Z,93.33
2023-03-17T05:07:25.374Z,93.29
2023-03-17T05:09:52.952Z,93.75
2023-03-17T05:12:20.531Z,94.33
2023-03-17T05:14:49.417Z,94.35
2023-03-17T05:17:17.247Z,94.55
2023-03-17T05:19:44.835Z,95.63
2023-03-17T05:22:12.572Z,95.62
2023-03-17T05:24:40.207Z,95.60
2023-03-17T05:27:07.759Z,95.52
2023-03-17T05:29:35.305Z,95.15
2023-03-17T05:32:04.576Z,95.16
2023-03-17T05:34:32.190Z,94.81
2023-03-17T05:36:59.806Z,95.38
2023-03-17T05:39:27.891Z,95.94
2023-03-17T05:41:55.473Z,96.12
2023-03-17T05:44:23.005Z,95.35
2023-03-17T05:46:51.026Z,95.89
2023-03-17T05:49:20.346Z,96.90
2023-03-17T05:51:47.945Z,96.34
2023-03-17T05:54:15.634Z,96.14
2023-03-17T05:56:43.305Z,95.70
2023-03-17T05:59:14.874Z,95.40
2023-03-17T06:01:42.535Z,95.01
2023-03-17T06:04:10.276Z,95.17
2023-03-17T06:06:39.908Z,95.47
2023-03-17T06:09:08.295Z,95.36
2023-03-17T06:11:36.852Z,94.88
2023-03-17T06:14:04.397Z,94.81
2023-03-17T06:16:33.117Z,94.81
2023-03-17T06:19:01.209Z,94.38
2023-03-17T06:21:29.162Z,94.00
2023-03-17T06:23:58.053Z,93.79
2023-03-17T06:26:25.575Z,93.76
2023-03-17T06:28:53.170Z,93.37
2023-03-17T06:31:20.900Z,92.09
2023-03-17T06:33:49.042Z,92.64
2023-03-17T06:36:16.916Z,92.66
2023-03-17T06:38:46.079Z,92.20
2023-03-17T06:41:14.959Z,91.96
2023-03-17T06:43:42.610Z,91.77
2023-03-17T06:46:10.492Z,91.27
2023-03-17T06:48:38.255Z,91.26
2023-03-17T06:51:06.235Z,89.61
2023-03-17T06:53:33.855Z,89.74
2023-03-17T06:56:01.493Z,89.46
2023-03-17T06:58:30.553Z,87.98
2023-03-17T07:00:58.590Z,89.06
2023-03-17T07:03:26.629Z,88.28
2023-03-17T07:05:54.740Z,88.42
2023-03-17T07:08:22.325Z,88.57
2023-03-17T07:10:50.062Z,87.62
2023-03-17T07:13:17.649Z,87.31
2023-03-17T07:15:47.152Z,86.03
2023-03-17T07:18:14.831Z,85.87
2023-03-17T07:20:42.454Z,85.60
2023-03-17T07:23:16.763Z,85.64
2023-03-17T07:25:45.553Z,85.78
2023-03-17T07:28:13.123Z,85.42
2023-03-17T07:30:43.749Z,85.42
2023-03-17T07:33:12.789Z,84.75
2023-03-17T07:35:41.016Z,84.66
2023-03-17T07:38:08.635Z,84.45
2023-03-17T07:40:36.288Z,84.80
2023-03-17T07:43:04.622Z,84.30
2023-03-17T07:45:33.034Z,83.38
2023-03-17T07:48:01.225Z,83.55
2023-03-17T07:50:30.195Z,83.62
2023-03-17T07:52:57.858Z,83.42
2023-03-17T07:55:25.652Z,82.84
2023-03-17T07:57:53.671Z,83.04
2023-03-17T08:00:23.528Z,83.00
2023-03-17T08:03:06.875Z,82.09
2023-03-17T08:05:38.173Z,81.66
2023-03-17T08:08:06.571Z,81.80
2023-03-17T08:10:34.715Z,82.30
2023-03-17T08:13:02.729Z,82.13
2023-03-17T08:15:30.788Z,81.59
2023-03-17T08:17:58.378Z,82.78
2023-03-17T08:20:25.904Z,82.52
2023-03-17T08:22:55.231Z,82.27
2023-03-17T08:25:22.849Z,82.08
2023-03-17T08:27:50.501Z,81.79
2023-03-17T08:30:18.788Z,80.69
2023-03-17T08:32:46.507Z,80.83
2023-03-17T08:35:16.015Z,81.00
2023-03-17T08:37:43.656Z,81.20
2023-03-17T08:40:16.930Z,80.45
2023-03-17T08:42:45.119Z,77.71
2023-03-17T08:45:13.485Z,74.64
2023-03-17T08:47:41.117Z,75.82
2023-03-17T08:50:11.321Z,77.75
2023-03-17T08:52:39.344Z,75.38
2023-03-17T08:55:08.002Z,74.92
2023-03-17T08:57:37.246Z,73.30
2023-03-17T09:00:10.849Z,75.72
2023-03-17T09:02:38.838Z,77.26
2023-03-17T09:05:07.325Z,78.83
2023-03-17T09:07:35.027Z,78.42
2023-03-17T09:10:04.990Z,78.55
2023-03-17T09:12:34.235Z,78.62
2023-03-17T09:15:03.373Z,79.21
2023-03-17T09:17:30.977Z,79.39
2023-03-17T09:19:59.421Z,77.90
2023-03-17T09:22:26.993Z,76.89
2023-03-17T09:24:54.868Z,77.39
2023-03-17T09:27:22.462Z,77.19
2023-03-17T09:29:50.025Z,76.36
2023-03-17T09:32:18.981Z,77.22
2023-03-17T09:34:48.164Z,76.01
2023-03-17T09:37:17.237Z,76.70
2023-03-17T09:39:44.780Z,75.69
2023-03-17T09:42:22.138Z,76.30
2023-03-17T09:45:12.278Z,74.92
2023-03-17T09:47:54.670Z,74.89
2023-03-17T09:50:25.414Z,74.78
2023-03-17T09:52:53.375Z,75.05
2023-03-17T09:55:26.308Z,73.92
2023-03-17T09:57:56.020Z,74.18
2023-03-17T10:00:29.082Z,74.90
2023-03-17T10:02:58.860Z,74.64
2023-03-17T10:05:28.256Z,75.50
2023-03-17T10:08:02.669Z,75.23
2023-03-17T10:10:36.218Z,76.06
2023-03-17T10:13:09.713Z,75.73
2023-03-17T10:15:44.106Z,76.77
2023-03-17T10:18:14.970Z,75.99
2023-03-17T10:20:50.460Z,76.05
2023-03-17T10:23:21.664Z,76.37
2023-03-17T10:25:49.381Z,75.59
2023-03-17T10:28:26.386Z,74.76
2023-03-17T10:30:54.573Z,74.93
2023-03-17T10:33:23.585Z,74.08
2023-03-17T10:35:51.606Z,73.77
2023-03-17T10:38:20.846Z,73.54
2023-03-17T10:40:55.687Z,72.72
2023-03-17T10:43:24.058Z,72.71
2023-03-17T10:46:02.613Z,72.51
2023-03-17T10:48:36.270Z,72.31
2023-03-17T10:51:06.817Z,71.39
2023-03-17T10:53:38.711Z,72.07
2023-03-17T10:56:10.363Z,70.38
2023-03-17T10:58:41.711Z,69.52
2023-03-17T11:01:17.474Z,69.55
2023-03-17T11:03:47.596Z,70.53
2023-03-17T11:06:16.878Z,70.01
2023-03-17T11:08:49.519Z,71.23
2023-03-17T11:11:24.821Z,70.46
2023-03-17T11:13:52.412Z,70.85
2023-03-17T11:16:23.291Z,70.69
2023-03-17T11:18:55.296Z,70.27
2023-03-17T11:21:26.308Z,70.09
2023-03-17T11:23:54.465Z,69.13
2023-03-17T11:26:32.420Z,69.21
2023-03-17T11:29:20.672Z,68.94
2023-03-17T11:31:59.576Z,69.04
2023-03-17T11:34:37.201Z,68.71
2023-03-17T11:37:13.160Z,69.92
2023-03-17T11:39:46.183Z,68.90
2023-03-17T11:42:18.302Z,69.16
2023-03-17T11:45:09.139Z,68.80
2023-03-17T11:47:43.816Z,68.50
2023-03-17T11:50:22.526Z,68.55
2023-03-17T11:53:01.967Z,67.10
2023-03-17T11:55:33.030Z,67.65
2023-03-17T11:58:05.273Z,67.72
2023-03-17T12:00:34.786Z,67.58
2023-03-17T12:03:09.582Z,68.04
2023-03-17T12:05:39.588Z,68.09
2023-03-17T12:08:13.361Z,68.03
2023-03-17T12:10:43.992Z,67.96
2023-03-17T12:13:14.107Z,68.11
2023-03-17T12:15:44.562Z,68.48
2023-03-17T12:18:15.482Z,69.23
2023-03-17T12:20:49.670Z,68.42
2023-03-17T12:23:29.172Z,68.38
2023-03-17T12:26:00.927Z,69.25
2023-03-17T12:28:32.903Z,69.80
2023-03-17T12:31:05.700Z,70.29
2023-03-17T12:33:39.258Z,69.89
2023-03-17T12:36:10.383Z,69.99
2023-03-17T12:38:40.964Z,69.40
2023-03-17T12:41:19.816Z,69.06
2023-03-17T12:44:00.870Z,69.70
2023-03-17T12:46:41.834Z,69.55
2023-03-17T12:49:29.803Z,68.12
2023-03-17T12:52:10.221Z,68.55
2023-03-17T12:54:39.358Z,68.22
2023-03-17T12:57:13.352Z,68.19
2023-03-17T12:59:43.120Z,67.70
2023-03-17T13:02:25.412Z,67.02
2023-03-17T13:04:57.985Z,65.91
2023-03-17T13:07:31.670Z,67.01
2023-03-17T13:10:16.077Z,66.65
2023-03-17T13:13:07.099Z,66.62
2023-03-17T13:15:56.995Z,67.22
2023-03-17T13:18:46.582Z,66.80
2023-03-17T13:21:16.267Z,66.12
2023-03-17T13:23:47.278Z,66.90
2023-03-17T13:26:16.208Z,66.65
2023-03-17T13:28:48.354Z,66.84
2023-03-17T13:31:31.747Z,66.40
2023-03-17T13:34:04.924Z,66.83
2023-03-17T13:36:38.862Z,67.78
2023-03-17T13:39:57.037Z,67.55
2023-03-17T13:42:36.348Z,67.24
2023-03-17T13:45:14.704Z,67.37
2023-03-17T13:47:42.876Z,68.38
2023-03-17T13:50:14.939Z,68.57
2023-03-17T13:52:48.506Z,69.45
2023-03-17T13:55:38.679Z,69.54
2023-03-17T13:58:34.468Z,68.95
2023-03-17T14:01:06.717Z,69.43
2023-03-17T14:03:40.053Z,68.57
2023-03-17T14:06:09.682Z,69.16
2023-03-17T14:08:38.698Z,69.79
2023-03-17T14:11:09.865Z,69.88
2023-03-17T14:13:44.582Z,70.49
2023-03-17T14:16:16.674Z,70.54
2023-03-17T14:18:49.486Z,70.31
2023-03-17T14:21:23.253Z,70.65
2023-03-17T14:23:55.638Z,71.15
2023-03-17T14:26:24.425Z,70.72
2023-03-17T14:28:53.554Z,70.58
2023-03-17T14:31:23.974Z,71.17
2023-03-17T14:33:53.943Z,71.72
2023-03-17T14:36:21.984Z,71.88
2023-03-17T14:38:51.167Z,71.92
2023-03-17T14:41:20.451Z,70.55
2023-03-17T14:43:48.574Z,69.50
2023-03-17T14:46:29.021Z,69.05
2023-03-17T14:48:59.503Z,68.51
2023-03-17T14:51:30.543Z,67.79
2023-03-17T14:54:00.621Z,68.51
2023-03-17T14:56:37.284Z,69.08
2023-03-17T14:59:08.605Z,68.37
2023-03-17T15:01:39.587Z,69.14
2023-03-17T15:04:11.544Z,69.01
2023-03-17T15:06:49.050Z,68.96
2023-03-17T15:09:21.787Z,69.03
2023-03-17T15:11:49.929Z,68.83
2023-03-17T15:14:21.295Z,68.72
2023-03-17T15:16:52.425Z,68.85
2023-03-17T15:19:22.886Z,68.68
2023-03-17T15:21:53.552Z,69.25
2023-03-17T15:24:40.749Z,69.47
2023-03-17T15:27:15.261Z,69.29
2023-03-17T15:29:43.058Z,69.61
2023-03-17T15:32:15.103Z,69.98
2023-03-17T15:34:42.784Z,69.62
2023-03-17T15:37:17.418Z,69.48
2023-03-17T15:39:45.490Z,69.18
2023-03-17T15:42:13.394Z,70.46
2023-03-17T15:44:41.179Z,70.43
2023-03-17T15:47:09.357Z,70.97
2023-03-17T15:49:38.346Z,71.11
2023-03-17T15:52:10.648Z,70.96
2023-03-17T15:54:38.219Z,71.36
2023-03-17T15:57:06.179Z,72.44
2023-03-17T15:59:33.990Z,73.33
2023-03-17T16:02:01.566Z,73.94
2023-03-17T16:04:29.221Z,73.57
2023-03-17T16:06:58.084Z,73.65
2023-03-17T16:09:25.742Z,73.50
2023-03-17T16:11:53.335Z,73.35
2023-03-17T16:14:20.902Z,73.18
2023-03-17T16:16:48.592Z,73.57
2023-03-17T16:19:20.006Z,74.10
2023-03-17T16:21:48.029Z,74.12
2023-03-17T16:24:19.665Z,74.19
2023-03-17T16:26:47.759Z,74.72
2023-03-17T16:29:16.139Z,74.91
2023-03-17T16:31:44.879Z,74.95
2023-03-17T16:34:16.548Z,74.55
2023-03-17T16:36:44.413Z,74.51
2023-03-17T16:39:18.640Z,74.30
2023-03-17T16:41:47.788Z,74.31
2023-03-17T16:44:17.227Z,75.54
2023-03-17T16:46:46.142Z,75.50
2023-03-17T16:49:16.409Z,76.98
2023-03-17T16:51:44.802Z,77.24
2023-03-17T16:54:12.720Z,77.69
2023-03-17T16:56:42.339Z,76.97
2023-03-17T16:59:19.843Z,77.18
2023-03-17T17:01:47.744Z,77.12
2023-03-17T17:04:15.415Z,77.22
2023-03-17T17:06:43.020Z,76.76
2023-03-17T17:09:10.652Z,77.07
2023-03-17T17:11:38.460Z,77.01
2023-03-17T17:14:07.389Z,77.34
2023-03-17T17:16:37.137Z,77.41
2023-03-17T17:19:05.500Z,77.16
2023-03-17T17:21:33.840Z,77.55
2023-03-17T17:24:01.469Z,77.42
2023-03-17T17:26:29.101Z,77.38
2023-03-17T17:28:56.649Z,77.94
2023-03-17T17:31:25.933Z,77.20
2023-03-17T17:33:53.724Z,76.38
2023-03-17T17:36:21.447Z,75.85
2023-03-17T17:38:49.099Z,75.98
2023-03-17T17:41:16.974Z,75.68
2023-03-17T17:43:46.051Z,75.35
2023-03-17T17:46:15.256Z,75.45
2023-03-17T17:48:44.639Z,74.80
2023-03-17T17:51:12.354Z,75.04
2023-03-17T17:53:40.017Z,75.14
2023-03-17T17:56:08.373Z,75.20
2023-03-17T17:58:35.978Z,75.07
2023-03-17T18:01:05.427Z,75.11
2023-03-17T18:03:33.102Z,75.37
2023-03-17T18:06:02.135Z,75.47
2023-03-17T18:08:29.739Z,75.45
2023-03-17T18:10:57.444Z,75.08
2023-03-17T18:13:25.313Z,75.09
2023-03-17T18:15:53.179Z,75.03
2023-03-17T18:18:20.800Z,74.52
2023-03-17T18:20:48.481Z,74.55
2023-03-17T18:23:17.650Z,74.79
2023-03-17T18:25:45.288Z,74.36
2023-03-17T18:28:13.020Z,75.01
2023-03-17T18:30:40.664Z,75.31
2023-03-17T18:33:10.536Z,75.47
2023-03-17T18:35:38.517Z,75.23
2023-03-17T18:38:06.190Z,75.55
2023-03-17T18:40:36.139Z,75.60
2023-03-17T18:43:04.086Z,75.28
2023-03-17T18:45:31.688Z,75.31
2023-03-17T18:47:59.219Z,75.67
2023-03-17T18:50:27.242Z,76.14
2023-03-17T18:52:55.651Z,76.14
2023-03-17T18:55:23.295Z,75.93
2023-03-17T18:57:52.268Z,76.02
2023-03-17T19:00:20.347Z,76.45
2023-03-17T19:02:48.063Z,76.16
2023-03-17T19:05:16.161Z,76.87
2023-03-17T19:07:43.784Z,77.14
2023-03-17T19:10:13.952Z,77.57
2023-03-17T19:12:42.302Z,77.61
2023-03-17T19:15:12.865Z,77.65
2023-03-17T19:17:41.002Z,77.60
2023-03-17T19:20:10.035Z,77.64
2023-03-17T19:22:37.674Z,77.53
2023-03-17T19:25:06.253Z,77.99
2023-03-17T19:27:33.814Z,78.35
2023-03-17T19:30:01.448Z,78.42
2023-03-17T19:32:30.444Z,78.31
2023-03-17T19:34:58.005Z,78.06
2023-03-17T19:37:26.036Z,77.92
2023-03-17T19:39:53.667Z,77.83
2023-03-17T19:42:21.242Z,77.98
2023-03-17T19:44:48.967Z,78.27
2023-03-17T19:47:16.680Z,78.54
2023-03-17T19:49:45.929Z,78.79
2023-03-17T19:52:13.515Z,79.03
2023-03-17T19:54:44.598Z,78.59
2023-03-17T19:57:13.122Z,78.07
2023-03-17T19:59:40.898Z,78.80
2023-03-17T20:02:08.870Z,80.35
2023-03-17T20:04:37.206Z,81.55
2023-03-17T20:07:06.281Z,81.55
2023-03-17T20:09:35.445Z,82.09
2023-03-17T20:12:03.022Z,81.99
2023-03-17T20:14:30.742Z,82.96
2023-03-17T20:16:58.368Z,83.21
2023-03-17T20:19:26.146Z,82.80
2023-03-17T20:21:53.841Z,82.87
2023-03-17T20:24:22.867Z,83.28
2023-03-17T20:26:51.612Z,83.51
2023-03-17T20:29:19.836Z,83.89
2023-03-17T20:31:47.382Z,83.68
2023-03-17T20:34:15.174Z,84.28
2023-03-17T20:36:44.425Z,84.81
2023-03-17T20:39:14.872Z,84.85
2023-03-17T20:41:43.854Z,84.87
2023-03-17T20:44:12.135Z,84.54
2023-03-17T20:46:39.813Z,84.45
2023-03-17T20:49:08.812Z,84.58
2023-03-17T20:51:36.707Z,84.36
2023-03-17T20:54:05.005Z,84.33
2023-03-17T20:56:33.825Z,84.34
2023-03-17T20:59:04.841Z,84.38
2023-03-17T21:01:33.645Z,84.17
2023-03-17T21:04:01.437Z,84.54
2023-03-17T21:06:29.546Z,84.49
2023-03-17T21:08:57.681Z,84.56
2023-03-17T21:11:26.636Z,84.53
2023-03-17T21:13:55.481Z,86.10
2023-03-17T21:16:26.616Z,86.45
2023-03-17T21:18:54.621Z,86.40
2023-03-17T21:21:22.666Z,85.99
2023-03-17T21:23:50.311Z,85.43
2023-03-17T21:26:18.378Z,85.32
2023-03-17T21:28:46.459Z,85.03
2023-03-17T21:31:15.935Z,84.50
2023-03-17T21:33:44.975Z,84.30
2023-03-17T21:36:12.659Z,84.37
2023-03-17T21:38:40.304Z,84.74
2023-03-17T21:41:22.202Z,85.09
2023-03-17T21:43:50.450Z,84.11
2023-03-17T21:46:18.234Z,83.26
2023-03-17T21:48:47.266Z,81.89
2023-03-17T21:51:14.807Z,80.89
2023-03-17T21:53:42.374Z,80.52
2023-03-17T21:56:12.346Z,79.99
2023-03-17T21:58:40.247Z,80.00
2023-03-17T22:01:09.136Z,80.74
2023-03-17T22:03:39.464Z,80.36
2023-03-17T22:06:09.353Z,80.09
2023-03-17T22:08:36.958Z,80.09
2023-03-17T22:11:08.166Z,79.86
2023-03-17T22:13:35.836Z,80.15
2023-03-17T22:16:03.898Z,79.77
2023-03-17T22:18:32.330Z,79.54
2023-03-17T22:21:00.146Z,79.81
2023-03-17T22:23:30.253Z,78.90
2023-03-17T22:25:58.396Z,79.25
2023-03-17T22:28:25.983Z,79.78
2023-03-17T22:30:54.433Z,79.07
2023-03-17T22:33:22.327Z,79.12
2023-03-17T22:35:49.992Z,78.96
2023-03-17T22:38:17.854Z,79.08
2023-03-17T22:40:46.962Z,79.01
2023-03-17T22:43:14.554Z,78.69
2023-03-17T22:45:42.205Z,78.55
2023-03-17T22:48:10.868Z,77.62
2023-03-17T22:50:38.450Z,76.87
2023-03-17T22:53:06.007Z,76.20
2023-03-17T22:55:33.676Z,76.63
2023-03-17T22:58:02.594Z,78.25
2023-03-17T23:00:31.207Z,80.43
2023-03-17T23:02:59.511Z,83.94
2023-03-17T23:05:27.131Z,85.86
2023-03-17T23:07:54.799Z,88.36
2023-03-17T23:10:24.564Z,89.66
2023-03-17T23:12:52.501Z,90.80
2023-03-17T23:15:21.867Z,91.41
2023-03-17T23:17:49.682Z,91.80
2023-03-17T23:20:17.640Z,92.52
2023-03-17T23:22:48.288Z,93.03
2023-03-17T23:25:16.230Z,93.64
2023-03-17T23:27:43.829Z,93.57
2023-03-17T23:30:13.249Z,93.93
2023-03-17T23:32:42.942Z,94.64
2023-03-17T23:35:11.499Z,94.46
2023-03-17T23:37:39.242Z,94.48
2023-03-17T23:40:09.165Z,93.89
2023-03-17T23:42:37.088Z,94.37
2023-03-17T23:45:06.613Z,95.10
2023-03-17T23:47:34.261Z,95.53
2023-03-17T23:50:03.512Z,95.93
2023-03-17T23:52:31.626Z,96.98
2023-03-17T23:54:59.440Z,96.52
2023-03-17T23:57:27.040Z,96.35
2023-03-17T23:59:54.585Z,97.53
